Time;durP1;ratioP1;P1;durP2;ratioP2;P2;SDS_P1;SDS_P2;PMS_P1;PMS_P2;Temp;Humidity;BMP_temperature;BMP_pressure;BME280_temperature;BME280_humidity;BME280_pressure;Samples;Min_cycle;Max_cycle;Signal;HPM_P1;HPM_P2
2024/01/31 00:01:34;;;;;;;47.10;22.40;;;;;;;4.16;53.33;101748.27;107841;1253;60082;-65
2024/01/31 00:04:03;;;;;;;51.20;24.00;;;;;;;4.24;53.31;101744.41;108078;1253;73876;-66
2024/01/31 00:06:31;;;;;;;45.20;20.80;;;;;;;4.22;52.81;101740.54;108171;1253;70780;-65
2024/01/31 00:09:00;;;;;;;53.20;23.40;;;;;;;4.26;53.01;101734.52;108116;1254;70774;-66
2024/01/31 00:11:31;;;;;;;53.00;20.50;;;;;;;4.26;52.83;101733.48;108022;1254;60155;-67
2024/01/31 00:13:58;;;;;;;45.50;20.80;;;;;;;4.19;52.69;101733.73;108106;1253;59472;-66
2024/01/31 00:16:26;;;;;;;54.70;23.10;;;;;;;4.31;52.60;101737.71;108143;1253;71795;-67
2024/01/31 00:18:54;;;;;;;46.70;21.20;;;;;;;4.37;52.38;101746.50;108081;1253;69539;-66
2024/01/31 00:21:22;;;;;;;44.90;22.30;;;;;;;4.41;52.48;101744.48;108053;1253;71832;-67
2024/01/31 00:23:52;;;;;;;47.80;23.70;;;;;;;4.46;52.48;101748.88;108055;1253;59769;-67
2024/01/31 00:26:20;;;;;;;48.90;22.00;;;;;;;4.45;52.38;101747.66;108069;1257;59573;-66
2024/01/31 00:28:47;;;;;;;38.00;18.70;;;;;;;4.46;52.66;101750.45;108114;1253;71804;-66
2024/01/31 00:31:15;;;;;;;50.10;22.00;;;;;;;4.47;52.49;101746.45;108069;1253;70354;-65
2024/01/31 00:33:43;;;;;;;40.00;19.20;;;;;;;4.47;52.31;101744.36;108110;1253;72178;-66
2024/01/31 00:36:11;;;;;;;50.70;23.10;;;;;;;4.47;52.50;101740.02;108081;1253;60860;-65
2024/01/31 00:38:39;;;;;;;50.80;23.80;;;;;;;4.38;52.59;101733.83;108091;1253;59479;-65
2024/01/31 00:41:06;;;;;;;57.90;21.80;;;;;;;4.43;52.57;101738.58;108104;1253;73034;-65
2024/01/31 00:43:34;;;;;;;42.90;21.80;;;;;;;4.41;52.21;101736.82;108056;1252;70386;-66
2024/01/31 00:46:05;;;;;;;34.90;18.30;;;;;;;4.31;52.59;101733.89;108092;1253;71439;-68
2024/01/31 00:48:33;;;;;;;39.50;18.80;;;;;;;4.32;52.69;101734.25;108146;1253;59620;-66
2024/01/31 00:51:00;;;;;;;42.60;19.70;;;;;;;4.20;52.77;101726.09;108156;1256;60289;-67
2024/01/31 00:53:28;;;;;;;37.10;18.00;;;;;;;4.14;53.05;101723.73;108065;1253;71977;-66
2024/01/31 00:55:55;;;;;;;48.80;23.30;;;;;;;4.11;52.83;101729.09;108033;1253;69944;-65
2024/01/31 00:58:23;;;;;;;47.90;20.20;;;;;;;4.07;52.69;101731.27;108024;1253;73301;-67
2024/01/31 01:00:50;;;;;;;39.00;19.30;;;;;;;4.02;52.97;101722.85;108037;1253;61294;-66
2024/01/31 01:03:19;;;;;;;35.80;19.10;;;;;;;4.05;53.02;101720.30;108059;1253;59545;-66
2024/01/31 01:05:47;;;;;;;34.90;16.70;;;;;;;4.02;52.91;101711.04;108029;1253;71890;-67
2024/01/31 01:08:15;;;;;;;52.40;23.30;;;;;;;3.95;53.48;101715.28;108084;1253;69024;-67
2024/01/31 01:10:42;;;;;;;47.80;21.80;;;;;;;3.90;53.65;101713.29;108052;1252;72950;-66
2024/01/31 01:13:09;;;;;;;41.70;20.50;;;;;;;3.85;53.67;101708.52;108020;1257;59977;-67
2024/01/31 01:15:37;;;;;;;43.70;20.70;;;;;;;3.92;53.86;101703.59;108051;1253;59630;-66
2024/01/31 01:18:05;;;;;;;38.70;18.60;;;;;;;4.02;53.69;101699.73;108073;1253;71802;-65
2024/01/31 01:20:32;;;;;;;46.50;20.90;;;;;;;4.02;53.74;101689.15;108095;1253;68957;-66
2024/01/31 01:23:00;;;;;;;39.20;19.70;;;;;;;3.98;53.89;101691.52;108105;1253;71846;-67
2024/01/31 01:25:27;;;;;;;39.70;19.70;;;;;;;3.95;53.85;101688.17;108091;1253;59927;-68
2024/01/31 01:27:55;;;;;;;43.00;21.20;;;;;;;3.97;53.96;101684.91;108145;1253;59425;-65
2024/01/31 01:30:23;;;;;;;38.90;18.80;;;;;;;4.06;53.77;101682.77;108149;1252;72525;-66
2024/01/31 01:32:50;;;;;;;35.80;18.10;;;;;;;4.10;53.55;101679.52;108081;1253;69944;-66
2024/01/31 01:35:18;;;;;;;44.30;21.00;;;;;;;4.07;53.66;101678.95;108026;1253;71458;-66
2024/01/31 01:37:45;;;;;;;39.70;19.10;;;;;;;4.07;53.81;101675.14;108036;1254;60092;-67
2024/01/31 01:40:15;;;;;;;45.00;22.00;;;;;;;4.14;53.75;101670.88;108050;1253;59544;-66
2024/01/31 01:42:44;;;;;;;49.30;22.20;;;;;;;4.17;53.62;101665.73;108170;1253;73127;-66
2024/01/31 01:45:13;;;;;;;51.30;22.50;;;;;;;4.18;53.71;101663.83;108060;1253;70367;-68
2024/01/31 01:47:42;;;;;;;55.80;24.40;;;;;;;4.23;53.60;101656.08;108019;1253;71463;-66
2024/01/31 01:50:12;;;;;;;50.50;23.90;;;;;;;4.20;53.68;101656.73;108022;1253;61020;-66
2024/01/31 01:52:40;;;;;;;54.30;23.50;;;;;;;4.29;53.49;101656.67;108106;1253;60031;-63
2024/01/31 01:55:08;;;;;;;47.10;21.50;;;;;;;4.26;53.48;101662.73;108010;1254;73094;-63
2024/01/31 01:57:38;;;;;;;43.70;20.40;;;;;;;4.37;53.70;101665.30;108111;1253;70079;-67
2024/01/31 02:00:08;;;;;;;43.70;22.10;;;;;;;4.47;53.86;101664.36;108089;1254;71811;-65
2024/01/31 02:02:36;;;;;;;47.10;21.90;;;;;;;4.52;53.41;101665.13;107967;1253;60825;-65
2024/01/31 02:05:05;;;;;;;39.70;20.10;;;;;;;4.62;53.18;101664.39;108090;1253;59994;-66
2024/01/31 02:07:34;;;;;;;40.30;20.30;;;;;;;4.63;53.22;101659.16;108067;1254;72868;-67
2024/01/31 02:10:02;;;;;;;44.10;21.30;;;;;;;4.69;53.02;101656.29;108143;1253;68791;-66
2024/01/31 02:12:30;;;;;;;52.00;23.50;;;;;;;4.70;53.09;101656.98;108020;1254;72440;-66
2024/01/31 02:14:57;;;;;;;42.30;20.90;;;;;;;4.70;52.75;101658.02;108003;1253;59724;-67
2024/01/31 02:17:25;;;;;;;41.40;20.90;;;;;;;4.68;52.67;101661.49;108097;1252;60044;-66
2024/01/31 02:19:52;;;;;;;46.70;22.50;;;;;;;4.70;52.95;101667.26;108074;1253;73064;-66
2024/01/31 02:22:20;;;;;;;41.80;19.00;;;;;;;4.69;52.59;101663.08;108107;1253;69465;-67
2024/01/31 02:24:48;;;;;;;43.80;21.20;;;;;;;4.72;52.60;101658.76;108101;1254;71354;-65
2024/01/31 02:27:15;;;;;;;46.80;21.00;;;;;;;4.66;52.73;101655.38;108044;1253;60919;-66
2024/01/31 02:29:43;;;;;;;42.70;20.20;;;;;;;4.62;52.86;101657.61;108067;1253;59505;-64
2024/01/31 02:32:11;;;;;;;42.00;21.40;;;;;;;4.49;53.17;101658.66;108085;1254;72129;-64
2024/01/31 02:34:39;;;;;;;45.00;20.70;;;;;;;4.39;53.03;101657.15;107987;1256;68554;-66
2024/01/31 02:37:07;;;;;;;43.50;20.60;;;;;;;4.31;53.43;101650.79;108013;1254;71521;-66
2024/01/31 02:39:35;;;;;;;43.70;20.90;;;;;;;4.31;53.10;101647.64;108014;1254;59685;-66
2024/01/31 02:42:03;;;;;;;39.40;19.10;;;;;;;4.25;53.13;101647.56;107984;1254;59420;-66
2024/01/31 02:44:30;;;;;;;50.50;22.90;;;;;;;4.23;53.51;101644.77;108036;1254;71726;-67
2024/01/31 02:46:58;;;;;;;46.60;21.30;;;;;;;4.15;53.44;101649.02;107994;1254;69938;-68
2024/01/31 02:49:25;;;;;;;40.30;19.10;;;;;;;4.07;53.50;101652.20;108027;1254;71611;-67
2024/01/31 02:51:53;;;;;;;47.90;22.80;;;;;;;4.05;53.57;101649.91;107971;1254;60847;-66
2024/01/31 02:54:21;;;;;;;38.50;19.00;;;;;;;4.11;53.40;101647.20;107969;1254;59589;-67
2024/01/31 02:56:48;;;;;;;47.80;22.20;;;;;;;4.04;53.95;101639.47;108002;1254;73012;-68
2024/01/31 02:59:16;;;;;;;58.30;25.70;;;;;;;4.03;53.53;101640.85;107992;1254;68859;-67
2024/01/31 03:01:47;;;;;;;57.80;24.90;;;;;;;3.98;53.22;101640.94;107937;1254;72137;-64
2024/01/31 03:04:14;;;;;;;53.30;24.90;;;;;;;3.92;53.29;101638.27;107991;1254;61340;-67
2024/01/31 03:06:42;;;;;;;46.60;22.20;;;;;;;3.93;53.00;101635.66;108054;1254;59410;-65
2024/01/31 03:09:10;;;;;;;50.30;24.00;;;;;;;3.97;53.28;101635.38;107944;1254;72051;-65
2024/01/31 03:11:37;;;;;;;49.10;23.20;;;;;;;4.08;53.07;101632.23;107994;1256;69950;-67
2024/01/31 03:14:05;;;;;;;45.20;19.30;;;;;;;4.08;53.09;101627.36;107987;1254;72677;-66
2024/01/31 03:16:32;;;;;;;42.60;21.40;;;;;;;4.10;53.41;101622.69;107995;1254;60815;-66
2024/01/31 03:19:00;;;;;;;45.50;21.00;;;;;;;4.03;53.48;101622.59;107989;1254;60255;-67
2024/01/31 03:21:28;;;;;;;41.50;20.70;;;;;;;3.97;53.80;101624.59;108003;1254;72521;-66
2024/01/31 03:23:56;;;;;;;43.90;21.30;;;;;;;4.00;54.16;101625.50;108016;1255;68764;-67
2024/01/31 03:26:23;;;;;;;43.20;19.20;;;;;;;4.03;53.84;101625.54;107964;1254;71319;-67
2024/01/31 03:28:51;;;;;;;40.80;20.50;;;;;;;4.02;53.87;101623.27;107935;1254;60332;-67
2024/01/31 03:31:20;;;;;;;49.00;22.60;;;;;;;3.97;53.90;101624.42;107949;1254;60558;-67
2024/01/31 03:33:47;;;;;;;40.50;20.30;;;;;;;3.97;54.32;101623.72;107989;1254;72730;-68
2024/01/31 03:36:15;;;;;;;59.10;26.80;;;;;;;3.85;54.57;101624.42;107976;1254;69201;-67
2024/01/31 03:38:43;;;;;;;63.00;27.40;;;;;;;3.78;54.62;101615.63;108005;1254;72672;-66
2024/01/31 03:41:10;;;;;;;56.80;26.40;;;;;;;3.84;54.83;101612.60;107908;1258;60478;-67
2024/01/31 03:43:38;;;;;;;79.20;31.60;;;;;;;3.85;54.67;101619.56;107921;1254;59984;-66
2024/01/31 03:46:06;;;;;;;76.00;29.30;;;;;;;3.84;54.85;101625.61;107895;1254;72724;-67
2024/01/31 03:48:34;;;;;;;64.00;27.40;;;;;;;3.90;54.66;101624.14;107937;1258;68738;-66
2024/01/31 03:51:02;;;;;;;71.00;28.50;;;;;;;3.93;54.49;101620.90;107969;1258;71375;-67
2024/01/31 03:53:30;;;;;;;50.80;21.70;;;;;;;3.82;54.89;101616.03;107915;1255;61731;-66
2024/01/31 03:55:57;;;;;;;60.30;25.60;;;;;;;3.84;54.88;101609.29;107924;1254;60794;-66
2024/01/31 03:58:24;;;;;;;52.60;24.10;;;;;;;3.83;54.76;101607.90;107852;1254;73651;-69
2024/01/31 04:00:52;;;;;;;61.10;25.50;;;;;;;3.86;54.89;101603.94;108023;1254;67702;-67
2024/01/31 04:03:20;;;;;;;77.20;29.70;;;;;;;3.85;54.88;101600.61;107949;1255;72426;-66
2024/01/31 04:05:49;;;;;;;60.10;25.40;;;;;;;3.94;54.74;101596.59;107904;1256;60436;-66
2024/01/31 04:08:16;;;;;;;73.30;30.80;;;;;;;4.00;55.03;101593.70;108033;1255;60354;-65
2024/01/31 04:10:44;;;;;;;77.60;31.00;;;;;;;4.09;54.80;101593.98;108042;1254;72555;-66
2024/01/31 04:13:12;;;;;;;67.70;26.70;;;;;;;4.12;54.92;101588.11;108008;1254;69230;-66
2024/01/31 04:15:39;;;;;;;78.50;30.70;;;;;;;4.06;55.11;101585.27;107953;1256;72771;-66
2024/01/31 04:18:07;;;;;;;73.50;25.60;;;;;;;4.04;54.65;101584.72;107933;1255;61725;-65
2024/01/31 04:20:37;;;;;;;65.40;27.00;;;;;;;4.03;54.80;101579.85;107961;1254;60410;-66
2024/01/31 04:23:05;;;;;;;54.10;25.90;;;;;;;4.05;54.49;101578.98;107983;1254;72679;-68
2024/01/31 04:25:33;;;;;;;54.00;24.50;;;;;;;4.01;54.28;101584.67;107972;1254;68924;-67
2024/01/31 04:28:01;;;;;;;67.20;27.50;;;;;;;4.06;54.47;101586.48;107954;1258;72927;-67
2024/01/31 04:30:29;;;;;;;54.40;25.50;;;;;;;4.13;54.07;101588.83;107955;1254;60927;-67
2024/01/31 04:33:00;;;;;;;61.40;26.20;;;;;;;4.14;54.24;101592.84;108020;1254;59018;-66
2024/01/31 04:35:28;;;;;;;56.20;25.80;;;;;;;4.10;54.26;101590.53;108049;1255;73456;-66
2024/01/31 04:37:55;;;;;;;49.80;22.10;;;;;;;4.05;54.39;101588.55;108020;1254;72664;-66
2024/01/31 04:40:23;;;;;;;55.30;25.00;;;;;;;4.10;54.30;101587.23;108037;1255;71130;-67
2024/01/31 04:42:51;;;;;;;57.00;26.30;;;;;;;4.13;54.12;101592.66;108025;1258;60320;-67
2024/01/31 04:45:21;;;;;;;50.10;23.30;;;;;;;4.11;54.31;101590.20;108008;1253;60323;-66
2024/01/31 04:47:48;;;;;;;61.70;27.10;;;;;;;3.98;54.73;101591.08;107969;1254;73944;-67
2024/01/31 04:50:16;;;;;;;47.50;23.60;;;;;;;3.89;54.80;101588.35;108000;1258;68721;-67
2024/01/31 04:52:44;;;;;;;43.00;21.20;;;;;;;3.90;55.06;101588.37;107952;1255;71606;-65
2024/01/31 04:55:13;;;;;;;50.80;24.80;;;;;;;3.94;55.14;101590.84;107962;1255;60288;-66
2024/01/31 04:57:41;;;;;;;48.60;23.60;;;;;;;3.91;55.33;101586.80;107996;1255;60298;-67
2024/01/31 05:00:15;;;;;;;57.80;26.90;;;;;;;3.89;55.60;101584.52;107874;1254;72959;-67
2024/01/31 05:02:43;;;;;;;63.80;25.80;;;;;;;3.94;55.45;101579.55;108007;1254;69972;-66
2024/01/31 05:05:10;;;;;;;52.80;24.60;;;;;;;3.88;55.67;101577.38;108045;1255;72463;-66
2024/01/31 05:07:38;;;;;;;65.00;28.70;;;;;;;3.89;55.43;101574.62;107988;1255;59700;-67
2024/01/31 05:10:06;;;;;;;44.60;21.50;;;;;;;3.92;55.18;101579.70;108067;1254;61165;-67
2024/01/31 05:12:34;;;;;;;56.90;27.30;;;;;;;3.99;55.55;101576.31;108030;1256;72624;-67
2024/01/31 05:15:02;;;;;;;59.80;25.60;;;;;;;3.82;55.81;101574.86;108022;1255;68847;-66
2024/01/31 05:17:29;;;;;;;57.80;26.00;;;;;;;3.84;56.11;101575.59;107965;1254;72660;-67
2024/01/31 05:19:57;;;;;;;57.20;26.40;;;;;;;3.89;56.17;101574.80;108035;1255;61216;-65
2024/01/31 05:22:25;;;;;;;56.20;26.20;;;;;;;3.90;55.98;101575.52;107950;1254;60563;-67
2024/01/31 05:24:53;;;;;;;59.20;26.20;;;;;;;3.87;55.84;101575.11;108030;1256;73813;-66
2024/01/31 05:27:20;;;;;;;58.20;27.50;;;;;;;3.94;55.52;101571.72;108085;1254;69336;-66
2024/01/31 05:29:48;;;;;;;50.00;23.80;;;;;;;4.14;55.08;101569.03;108045;1255;72860;-67
2024/01/31 05:32:16;;;;;;;55.20;26.20;;;;;;;4.30;55.12;101569.23;108004;1255;60381;-66
2024/01/31 05:34:44;;;;;;;54.70;26.90;;;;;;;4.31;55.05;101568.89;108098;1259;60771;-67
2024/01/31 05:37:12;;;;;;;60.60;26.70;;;;;;;4.35;54.76;101564.92;108103;1255;72614;-68
2024/01/31 05:39:39;;;;;;;57.40;28.00;;;;;;;4.32;54.66;101564.03;108047;1253;69200;-67
2024/01/31 05:42:07;;;;;;;51.20;26.50;;;;;;;4.33;54.46;101562.65;108132;1253;72855;-67
2024/01/31 05:44:35;;;;;;;68.60;29.40;;;;;;;4.25;54.38;101554.05;108163;1253;61457;-67
2024/01/31 05:47:02;;;;;;;58.90;26.60;;;;;;;4.15;54.48;101552.18;108132;1253;59558;-67
2024/01/31 05:49:30;;;;;;;56.60;27.10;;;;;;;4.28;54.15;101553.73;108035;1253;73797;-64
2024/01/31 05:51:57;;;;;;;71.30;30.80;;;;;;;4.34;54.21;101555.00;108187;1253;70268;-68
2024/01/31 05:54:25;;;;;;;60.10;27.80;;;;;;;4.33;53.89;101555.88;108185;1253;72682;-68
2024/01/31 05:56:53;;;;;;;61.90;28.20;;;;;;;4.46;53.90;101556.20;108111;1253;60853;-67
2024/01/31 05:59:25;;;;;;;67.40;30.10;;;;;;;4.41;53.85;101560.98;108182;1253;60418;-66
2024/01/31 06:01:53;;;;;;;54.80;25.30;;;;;;;4.28;54.23;101563.64;108174;1251;73808;-65
2024/01/31 06:04:20;;;;;;;72.50;32.80;;;;;;;4.23;55.02;101561.32;108200;1253;69329;-65
2024/01/31 06:06:48;;;;;;;76.90;32.60;;;;;;;4.25;54.85;101554.75;108203;1253;71464;-65
2024/01/31 06:09:16;;;;;;;64.90;31.00;;;;;;;4.46;54.38;101554.09;108234;1252;60145;-68
2024/01/31 06:11:43;;;;;;;73.10;34.30;;;;;;;4.49;54.46;101554.48;108231;1253;60308;-65
2024/01/31 06:14:11;;;;;;;76.20;34.60;;;;;;;4.46;53.92;101557.06;108220;1253;74101;-67
2024/01/31 06:16:38;;;;;;;81.20;37.50;;;;;;;4.45;53.96;101557.21;108194;1253;70325;-67
2024/01/31 06:19:08;;;;;;;78.40;35.70;;;;;;;4.58;53.57;101554.58;108314;1254;71455;-67
2024/01/31 06:21:36;;;;;;;73.00;33.10;;;;;;;4.70;53.80;101557.14;108208;1253;61253;-67
2024/01/31 06:24:04;;;;;;;75.90;33.30;;;;;;;4.80;53.66;101557.57;108178;1253;60424;-67
2024/01/31 06:26:37;;;;;;;71.70;33.70;;;;;;;4.79;53.39;101560.01;108148;1253;73591;-66
2024/01/31 06:29:05;;;;;;;74.60;32.40;;;;;;;4.84;53.32;101559.86;108039;1253;70304;-68
2024/01/31 06:31:36;;;;;;;70.00;33.00;;;;;;;4.86;53.49;101554.52;108138;1253;74950;-68
2024/01/31 06:34:03;;;;;;;70.20;30.40;;;;;;;4.83;53.26;101555.52;108238;1253;60283;-67
2024/01/31 06:36:31;;;;;;;68.60;31.30;;;;;;;4.90;53.75;101552.10;108163;1253;60345;-66
2024/01/31 06:38:59;;;;;;;68.00;31.80;;;;;;;5.00;53.50;101555.33;108156;1253;73866;-67
2024/01/31 06:41:28;;;;;;;67.60;30.90;;;;;;;5.08;52.81;101549.99;108270;1253;70613;-66
2024/01/31 06:43:55;;;;;;;64.10;31.80;;;;;;;5.14;53.07;101551.77;108267;1252;72677;-67
2024/01/31 06:46:23;;;;;;;58.40;30.30;;;;;;;5.42;52.03;101554.95;108174;1253;60422;-67
2024/01/31 06:48:51;;;;;;;62.70;28.70;;;;;;;5.69;51.44;101549.03;108124;1253;60336;-67
2024/01/31 06:51:18;;;;;;;64.00;30.60;;;;;;;5.88;51.39;101551.41;108059;1253;73940;-66
2024/01/31 06:53:46;;;;;;;52.10;26.20;;;;;;;6.09;51.43;101546.29;108177;1253;69431;-64
2024/01/31 06:56:19;;;;;;;55.50;28.40;;;;;;;6.50;51.21;101544.33;108042;1258;72783;-65
2024/01/31 06:58:47;;;;;;;56.80;28.10;;;;;;;6.56;50.22;101545.04;108005;1258;61942;-65
2024/01/31 07:01:18;;;;;;;52.50;26.60;;;;;;;6.88;49.80;101538.45;108044;1253;60528;-66
2024/01/31 07:03:46;;;;;;;57.60;30.10;;;;;;;6.77;49.61;101533.20;108129;1253;74927;-68
2024/01/31 07:06:15;;;;;;;53.10;26.80;;;;;;;6.76;49.04;101532.15;108027;1253;68852;-67
2024/01/31 07:08:43;;;;;;;57.90;28.00;;;;;;;7.03;48.24;101527.98;108002;1253;72767;-66
2024/01/31 07:11:10;;;;;;;57.00;27.50;;;;;;;7.35;47.53;101527.79;108188;1256;60958;-69
2024/01/31 07:13:41;;;;;;;46.20;24.10;;;;;;;6.75;48.60;101531.64;107950;1253;60424;-67
2024/01/31 07:16:09;;;;;;;55.70;28.80;;;;;;;6.48;49.87;101531.77;108133;1253;73797;-66
2024/01/31 07:18:41;;;;;;;54.60;28.50;;;;;;;6.25;50.25;101526.81;107975;1253;67890;-67
2024/01/31 07:21:09;;;;;;;56.70;28.40;;;;;;;6.38;49.23;101525.64;107952;1253;71297;-66
2024/01/31 07:23:41;;;;;;;62.00;30.00;;;;;;;6.41;49.23;101523.01;108118;1253;60873;-66
2024/01/31 07:26:09;;;;;;;54.10;25.70;;;;;;;6.40;49.16;101524.59;108200;1253;60177;-68
2024/01/31 07:28:37;;;;;;;60.30;29.10;;;;;;;6.50;49.27;101525.85;108158;1253;74323;-68
2024/01/31 07:31:06;;;;;;;56.70;29.30;;;;;;;6.60;49.09;101521.85;108009;1253;69349;-67
2024/01/31 07:33:34;;;;;;;61.20;29.20;;;;;;;6.76;48.80;101526.58;107956;1253;71497;-67
2024/01/31 07:36:02;;;;;;;78.00;34.90;;;;;;;6.81;48.80;101522.75;107984;1254;60888;-68
2024/01/31 07:38:30;;;;;;;63.90;31.20;;;;;;;6.92;48.58;101522.75;107999;1253;60337;-67
2024/01/31 07:40:58;;;;;;;65.20;32.70;;;;;;;7.26;48.44;101518.54;108100;1253;72644;-68
2024/01/31 07:43:25;;;;;;;71.30;34.20;;;;;;;7.60;47.52;101521.78;108009;1253;70020;-67
2024/01/31 07:45:53;;;;;;;73.60;33.50;;;;;;;8.03;46.80;101519.72;108138;1253;74867;-67
2024/01/31 07:48:21;;;;;;;82.90;39.30;;;;;;;8.43;46.52;101518.66;107960;1254;60441;-68
2024/01/31 07:50:48;;;;;;;73.00;36.70;;;;;;;9.04;45.39;101517.00;107966;1253;60326;-68
2024/01/31 07:53:16;;;;;;;61.50;31.00;;;;;;;9.77;43.11;101517.85;108025;1253;74123;-67
2024/01/31 07:55:43;;;;;;;58.70;29.60;;;;;;;10.49;42.53;101517.29;108017;1253;68657;-65
2024/01/31 07:58:11;;;;;;;52.60;26.90;;;;;;;11.40;40.42;101513.70;107986;1253;71564;-67
2024/01/31 08:00:39;;;;;;;55.10;26.50;;;;;;;11.99;37.74;101512.40;107982;1253;60528;-68
2024/01/31 08:03:06;;;;;;;52.30;24.60;;;;;;;12.47;36.40;101517.70;108025;1253;60330;-68
2024/01/31 08:05:37;;;;;;;44.10;22.80;;;;;;;12.98;35.63;101517.55;107937;1260;73971;-67
2024/01/31 08:08:04;;;;;;;44.90;24.00;;;;;;;13.34;34.72;101512.09;108000;1253;70042;-67
2024/01/31 08:10:32;;;;;;;38.20;21.60;;;;;;;13.57;33.92;101514.47;107972;1258;72647;-69
2024/01/31 08:12:59;;;;;;;40.90;23.00;;;;;;;13.40;33.85;101508.41;107938;1253;60315;-66
2024/01/31 08:15:27;;;;;;;41.30;23.10;;;;;;;13.29;34.39;101508.85;107950;1253;59663;-68
2024/01/31 08:17:54;;;;;;;37.80;21.60;;;;;;;13.10;33.77;101506.14;107965;1253;73820;-67
2024/01/31 08:20:22;;;;;;;38.50;21.30;;;;;;;12.88;34.01;101504.97;108057;1253;71619;-67
2024/01/31 08:22:50;;;;;;;36.70;20.40;;;;;;;12.67;34.17;101505.27;107916;1253;72733;-67
2024/01/31 08:25:18;;;;;;;36.80;20.20;;;;;;;13.02;33.96;101500.53;108051;1253;60360;-68
2024/01/31 08:27:48;;;;;;;42.10;22.00;;;;;;;13.70;32.74;101495.55;108027;1254;60495;-67
2024/01/31 08:30:17;;;;;;;40.00;20.00;;;;;;;14.40;32.26;101491.23;108045;1253;73873;-68
2024/01/31 08:32:46;;;;;;;38.10;19.50;;;;;;;14.99;31.29;101486.33;108087;1253;69191;-68
2024/01/31 08:35:14;;;;;;;32.20;18.00;;;;;;;15.67;30.45;101484.48;108145;1253;72476;-67
2024/01/31 08:37:41;;;;;;;33.20;18.20;;;;;;;16.21;28.39;101485.14;108217;1253;60431;-69
2024/01/31 08:40:10;;;;;;;31.40;17.20;;;;;;;16.19;28.58;101487.84;108150;1252;61654;-69
2024/01/31 08:42:40;;;;;;;30.40;17.40;;;;;;;16.04;28.74;101487.35;108153;1253;72847;-68
2024/01/31 08:45:09;;;;;;;28.40;16.40;;;;;;;16.02;28.03;101484.79;108182;1253;69679;-68
2024/01/31 08:47:37;;;;;;;32.80;17.20;;;;;;;15.59;28.90;101484.05;108156;1254;73335;-69
2024/01/31 08:50:05;;;;;;;38.00;17.00;;;;;;;15.26;29.00;101480.26;108045;1258;60417;-67
2024/01/31 08:52:34;;;;;;;32.40;16.90;;;;;;;14.98;29.32;101477.86;108197;1253;60981;-68
2024/01/31 08:55:01;;;;;;;34.30;16.60;;;;;;;14.67;29.38;101477.46;108020;1258;75074;-68
2024/01/31 08:57:29;;;;;;;33.50;16.70;;;;;;;14.75;29.32;101471.91;108224;1253;69446;-67
2024/01/31 08:59:57;;;;;;;29.80;16.00;;;;;;;15.00;29.33;101468.44;108183;1253;71711;-68
2024/01/31 09:02:24;;;;;;;28.00;15.20;;;;;;;15.01;29.44;101465.73;108174;1253;61197;-68
2024/01/31 09:04:52;;;;;;;26.20;14.10;;;;;;;15.45;28.54;101460.63;108229;1254;60499;-68
2024/01/31 09:07:19;;;;;;;34.20;15.50;;;;;;;15.85;27.74;101454.61;108160;1253;72569;-69
2024/01/31 09:09:47;;;;;;;27.90;15.50;;;;;;;15.91;27.54;101450.67;108197;1253;70308;-68
2024/01/31 09:12:15;;;;;;;25.80;14.80;;;;;;;16.20;27.28;101445.63;108195;1253;73127;-68
2024/01/31 09:14:42;;;;;;;24.70;14.30;;;;;;;16.79;27.32;101436.33;108093;1257;61017;-69
2024/01/31 09:17:09;;;;;;;22.80;14.00;;;;;;;17.53;25.95;101431.55;108012;1253;60386;-70
2024/01/31 09:19:37;;;;;;;24.90;14.30;;;;;;;17.91;26.09;101425.02;107994;1253;74169;-67
2024/01/31 09:22:05;;;;;;;24.80;14.60;;;;;;;18.01;25.08;101420.62;107974;1253;71407;-67
2024/01/31 09:24:33;;;;;;;25.30;14.90;;;;;;;18.29;24.95;101419.84;108025;1253;74806;-67
2024/01/31 09:27:00;;;;;;;23.30;14.60;;;;;;;18.49;25.16;101416.88;108034;1256;60448;-68
2024/01/31 09:29:28;;;;;;;26.70;16.40;;;;;;;18.71;24.55;101412.59;108002;1253;60221;-69
2024/01/31 09:31:55;;;;;;;26.90;15.10;;;;;;;18.85;24.97;101408.85;108002;1253;73956;-68
2024/01/31 09:34:24;;;;;;;24.30;15.60;;;;;;;19.18;24.41;101402.34;108039;1253;72749;-69
2024/01/31 09:36:51;;;;;;;25.40;15.00;;;;;;;19.07;23.43;101396.16;108233;1254;72760;-68
2024/01/31 09:39:19;;;;;;;21.70;13.50;;;;;;;18.42;23.90;101392.34;108193;1256;60234;-68
2024/01/31 09:41:48;;;;;;;25.20;13.70;;;;;;;17.80;24.39;101393.19;108155;1253;62368;-69
2024/01/31 09:44:17;;;;;;;28.70;14.60;;;;;;;17.66;24.76;101389.20;108002;1254;72910;-68
2024/01/31 09:46:44;;;;;;;24.80;13.50;;;;;;;17.70;25.63;101381.73;107965;1253;70091;-69
2024/01/31 09:49:12;;;;;;;23.40;13.70;;;;;;;18.15;24.33;101371.98;108017;1253;71668;-68
2024/01/31 09:51:40;;;;;;;25.20;14.20;;;;;;;18.33;24.19;101372.89;108127;1259;62213;-69
2024/01/31 09:54:07;;;;;;;24.00;14.20;;;;;;;18.21;24.37;101365.48;108131;1253;60517;-69
2024/01/31 09:56:36;;;;;;;27.70;15.00;;;;;;;18.32;24.19;101359.26;108141;1255;73793;-69
2024/01/31 09:59:03;;;;;;;36.70;19.20;;;;;;;18.57;24.91;101354.92;108201;1253;70897;-69
2024/01/31 10:01:31;;;;;;;35.10;18.80;;;;;;;18.96;24.38;101350.13;108144;1254;73044;-68
2024/01/31 10:04:00;;;;;;;37.40;21.70;;;;;;;19.19;23.69;101345.16;108112;1253;60527;-69
2024/01/31 10:06:28;;;;;;;34.90;21.20;;;;;;;19.26;23.85;101345.86;108168;1253;60153;-67
2024/01/31 10:08:57;;;;;;;40.20;21.30;;;;;;;19.21;23.46;101343.83;108199;1256;73010;-69
2024/01/31 10:11:25;;;;;;;39.70;21.70;;;;;;;19.19;23.92;101338.44;108138;1253;70300;-68
2024/01/31 10:13:55;;;;;;;36.60;20.70;;;;;;;19.34;23.54;101343.08;108187;1257;73432;-67
2024/01/31 10:16:24;;;;;;;35.30;22.10;;;;;;;19.26;23.37;101342.48;108163;1253;60403;-68
2024/01/31 10:18:52;;;;;;;30.40;18.00;;;;;;;19.18;23.66;101335.23;108150;1252;60994;-69
2024/01/31 10:21:19;;;;;;;39.80;22.20;;;;;;;19.05;23.03;101336.13;108156;1254;74176;-69
2024/01/31 10:24:00;;;;;;;36.70;21.90;;;;;;;18.85;23.68;101333.78;108215;1257;69089;-69
2024/01/31 10:26:27;;;;;;;37.70;20.20;;;;;;;18.31;23.89;101335.27;108053;1253;72797;-69
2024/01/31 10:28:57;;;;;;;39.60;20.90;;;;;;;18.08;24.30;101327.88;108013;1253;60362;-69
2024/01/31 10:31:37;;;;;;;40.20;20.30;;;;;;;18.01;24.31;101329.67;108183;1253;60425;-68
2024/01/31 10:34:07;;;;;;;;;;;;;;;17.52;24.69;101325.05;108078;1253;73062;-68
2024/01/31 10:36:36;;;;;;;37.10;20.10;;;;;;;17.03;24.97;101324.77;108022;1253;72591;-70
2024/01/31 10:39:09;;;;;;;39.10;20.40;;;;;;;16.73;25.52;101321.30;108043;1254;74890;-68
2024/01/31 10:41:38;;;;;;;;;;;;;;;16.36;25.68;101318.97;108023;1254;60294;-69
2024/01/31 10:44:08;;;;;;;52.00;25.90;;;;;;;16.35;26.24;101318.00;108066;1253;60460;-69
2024/01/31 10:46:37;;;;;;;48.70;25.60;;;;;;;16.55;26.55;101319.59;107791;1253;75897;-69
2024/01/31 10:49:04;;;;;;;50.80;24.30;;;;;;;16.74;26.21;101317.36;108028;1253;69235;-67
2024/01/31 10:51:32;;;;;;;41.90;23.40;;;;;;;16.54;26.30;101315.73;107924;1258;72898;-69
2024/01/31 10:54:01;;;;;;;43.10;23.10;;;;;;;16.41;26.72;101311.51;107971;1258;59887;-69
2024/01/31 10:56:29;;;;;;;46.20;24.20;;;;;;;16.69;26.39;101305.90;107902;1254;60399;-70
2024/01/31 10:58:57;;;;;;;40.40;22.50;;;;;;;16.95;26.16;101299.96;107711;1254;76149;-69
2024/01/31 11:01:30;;;;;;;35.50;20.00;;;;;;;16.91;25.87;101294.66;108019;1253;69625;-68
2024/01/31 11:04:00;;;;;;;40.90;21.10;;;;;;;16.88;25.86;101292.84;108118;1255;73644;-69
2024/01/31 11:06:40;;;;;;;33.00;18.50;;;;;;;16.61;26.59;101286.38;107707;1253;60313;-68
2024/01/31 11:09:25;;;;;;;33.50;19.90;;;;;;;16.89;26.02;101287.11;107956;1255;60317;-67
2024/01/31 11:12:07;;;;;;;38.10;20.20;;;;;;;17.12;25.80;101286.06;107981;1253;75846;-68